createdAt,value
2022-10-28T00:01:21.834Z,11.45
2022-10-28T00:06:34.387Z,14.05
2022-10-28T00:11:35.865Z,12.02
2022-10-28T00:16:37.901Z,12.60
2022-10-28T00:21:40.513Z,11.55
2022-10-28T00:26:42.727Z,15.13
2022-10-28T00:36:46.021Z,13.45
2022-10-28T00:41:52.604Z,13.73
2022-10-28T00:46:54.052Z,12.25
2022-10-28T00:52:07.291Z,14.35
2022-10-28T00:57:10.853Z,17.25
2022-10-28T01:02:12.444Z,14.23
2022-10-28T01:07:14.576Z,13.43
2022-10-28T01:12:23.400Z,17.50
2022-10-28T01:18:12.970Z,14.18
2022-10-28T01:23:19.222Z,10.82
2022-10-28T01:28:46.724Z,16.80
2022-10-28T01:34:27.113Z,13.15
2022-10-28T01:39:28.399Z,14.07
2022-10-28T01:44:51.547Z,12.27
2022-10-28T01:49:56.660Z,12.82
2022-10-28T01:55:02.462Z,13.10
2022-10-28T02:00:04.449Z,16.45
2022-10-28T02:05:33.524Z,10.90
2022-10-28T02:10:37.028Z,14.00
2022-10-28T02:15:52.767Z,11.30
2022-10-28T02:21:03.159Z,13.00
2022-10-28T02:26:22.613Z,15.38
2022-10-28T02:31:26.586Z,12.15
2022-10-28T02:36:28.989Z,11.80
2022-10-28T02:41:33.663Z,15.25
2022-10-28T02:46:35.383Z,15.13
2022-10-28T02:51:38.577Z,16.35
2022-10-28T02:56:53.662Z,14.52
2022-10-28T03:01:55.225Z,15.32
2022-10-28T03:06:56.796Z,18.88
2022-10-28T03:11:58.269Z,12.75
2022-10-28T03:16:59.714Z,15.25
2022-10-28T03:22:01.160Z,14.15
2022-10-28T03:27:02.601Z,17.75
2022-10-28T03:32:04.169Z,13.15
2022-10-28T03:37:05.622Z,14.55
2022-10-28T03:42:07.070Z,14.25
2022-10-28T03:47:08.563Z,12.48
2022-10-28T03:52:10.014Z,16.23
2022-10-28T03:57:11.466Z,16.40
2022-10-28T04:02:13.175Z,14.20
2022-10-28T04:07:14.749Z,19.52
2022-10-28T04:12:16.202Z,15.40
2022-10-28T04:17:17.666Z,17.67
2022-10-28T04:22:19.127Z,18.55
2022-10-28T04:27:21.087Z,18.90
2022-10-28T04:32:22.585Z,13.75
2022-10-28T04:37:24.805Z,15.02
2022-10-28T04:42:26.277Z,13.82
2022-10-28T04:47:27.742Z,16.15
2022-10-28T04:52:29.227Z,15.27
2022-10-28T04:57:32.337Z,17.10
2022-10-28T05:02:33.783Z,20.70
2022-10-28T05:07:35.230Z,21.08
2022-10-28T05:12:36.681Z,15.05
2022-10-28T05:17:40.169Z,15.88
2022-10-28T05:22:53.716Z,14.02
2022-10-28T05:27:59.145Z,14.95
2022-10-28T05:33:02.223Z,16.55
2022-10-28T05:38:03.965Z,13.82
2022-10-28T05:43:06.428Z,17.92
2022-10-28T05:48:07.876Z,18.38
2022-10-28T05:53:09.336Z,17.80
2022-10-28T05:58:10.793Z,15.40
2022-10-28T06:03:12.353Z,14.27
2022-10-28T06:08:13.866Z,17.00
2022-10-28T06:13:13.797Z,18.17
2022-10-28T06:18:16.805Z,20.30
2022-10-28T06:23:20.841Z,17.25
2022-10-28T06:28:22.344Z,17.58
2022-10-28T06:33:23.804Z,21.63
2022-10-28T06:38:26.055Z,23.23
2022-10-28T06:48:30.331Z,16.98
2022-10-28T06:53:31.844Z,16.15
2022-10-28T06:58:33.357Z,16.08
2022-10-28T07:03:34.822Z,18.77
2022-10-28T07:08:36.303Z,12.82
2022-10-28T07:13:37.782Z,19.73
2022-10-28T07:18:39.238Z,16.27
2022-10-28T07:23:40.720Z,16.17
2022-10-28T07:28:42.861Z,16.52
2022-10-28T07:33:44.319Z,23.05
2022-10-28T07:38:48.720Z,18.25
2022-10-28T07:43:50.260Z,17.10
2022-10-28T07:48:51.723Z,18.40
2022-10-28T07:53:53.319Z,22.33
2022-10-28T07:58:54.769Z,16.35
2022-10-28T08:03:56.899Z,21.75
2022-10-28T08:08:58.376Z,16.77
2022-10-28T08:14:01.240Z,16.38
2022-10-28T08:19:06.813Z,19.23
2022-10-28T08:24:09.343Z,18.73
2022-10-28T08:29:12.062Z,15.45
2022-10-28T08:34:13.574Z,18.25
2022-10-28T08:39:15.094Z,14.55
2022-10-28T08:44:53.739Z,14.20
2022-10-28T08:49:56.573Z,15.32
2022-10-28T08:55:02.303Z,15.82
2022-10-28T09:00:06.149Z,17.05
2022-10-28T09:05:17.372Z,15.98
2022-10-28T09:10:25.452Z,15.63
2022-10-28T09:15:54.920Z,18.77
2022-10-28T09:20:56.900Z,21.35
2022-10-28T09:26:01.430Z,20.25
2022-10-28T09:31:05.408Z,19.67
2022-10-28T09:36:14.034Z,16.40
2022-10-28T09:41:18.568Z,18.20
2022-10-28T09:46:20.035Z,18.55
2022-10-28T09:51:34.905Z,23.50
2022-10-28T09:56:36.382Z,18.40
2022-10-28T10:01:38.342Z,21.38
2022-10-28T10:06:39.867Z,16.48
2022-10-28T10:11:43.552Z,12.48
2022-10-28T10:16:46.924Z,16.95
2022-10-28T10:21:49.602Z,23.70
2022-10-28T10:26:51.785Z,16.55
2022-10-28T10:32:18.554Z,13.07
2022-10-28T10:37:21.166Z,13.68
2022-10-28T10:42:24.795Z,15.20
2022-10-28T10:47:26.270Z,18.27
2022-10-28T10:52:29.545Z,16.35
2022-10-28T10:57:30.998Z,15.38
2022-10-28T11:02:39.452Z,20.27
2022-10-28T11:12:57.475Z,16.75
2022-10-28T11:18:11.257Z,18.20
2022-10-28T11:23:46.035Z,15.77
2022-10-28T11:29:15.687Z,14.07
2022-10-28T11:34:26.823Z,14.13
2022-10-28T11:39:34.435Z,17.65
2022-10-28T11:44:59.897Z,15.27
2022-10-28T11:50:13.522Z,19.30
2022-10-28T11:55:37.684Z,19.63
2022-10-28T12:00:57.141Z,16.83
2022-10-28T12:06:09.732Z,14.10
2022-10-28T12:11:45.736Z,20.42
2022-10-28T12:16:57.309Z,17.30
2022-10-28T12:22:05.729Z,17.20
2022-10-28T12:27:17.050Z,16.85
2022-10-28T12:32:24.975Z,20.35
2022-10-28T12:37:44.678Z,14.27
2022-10-28T12:42:55.479Z,18.30
2022-10-28T12:48:16.759Z,18.45
2022-10-28T12:53:38.383Z,15.30
2022-10-28T12:58:50.379Z,15.95
2022-10-28T13:03:52.559Z,15.35
2022-10-28T13:14:34.160Z,16.77
2022-10-28T13:20:00.520Z,21.30
2022-10-28T13:25:34.204Z,16.92
2022-10-28T13:30:35.674Z,15.07
2022-10-28T13:35:37.144Z,16.45
2022-10-28T13:40:38.433Z,13.55
2022-10-28T13:45:54.312Z,15.35
2022-10-28T13:51:11.072Z,18.45
2022-10-28T13:56:37.591Z,16.23
2022-10-28T14:01:41.936Z,19.77
2022-10-28T14:06:43.763Z,14.88
2022-10-28T14:11:45.240Z,18.05
2022-10-28T14:16:46.700Z,17.25
2022-10-28T14:22:01.719Z,15.20
2022-10-28T14:27:06.752Z,18.50
2022-10-28T14:32:31.549Z,14.32
2022-10-28T14:38:08.588Z,17.83
2022-10-28T14:43:34.781Z,14.70
2022-10-28T14:48:42.783Z,18.15
2022-10-28T14:53:45.036Z,13.32
2022-10-28T14:58:46.521Z,18.98
2022-10-28T15:03:50.559Z,15.80
2022-10-28T15:08:52.087Z,13.90
2022-10-28T15:13:53.662Z,11.32
2022-10-28T15:18:55.120Z,18.92
2022-10-28T15:24:00.863Z,15.88
2022-10-28T15:29:02.364Z,17.13
2022-10-28T15:34:03.833Z,14.02
2022-10-28T15:39:06.924Z,16.45
2022-10-28T15:44:23.785Z,18.45
2022-10-28T15:49:36.151Z,21.70
2022-10-28T15:54:37.602Z,16.52
2022-10-28T15:59:39.057Z,13.77
2022-10-28T16:04:42.352Z,16.85
2022-10-28T16:09:46.480Z,15.82
2022-10-28T16:14:55.639Z,15.75
2022-10-28T16:19:58.697Z,18.05
2022-10-28T16:25:00.240Z,18.70
2022-10-28T16:30:01.710Z,19.77
2022-10-28T16:35:03.955Z,17.40
2022-10-28T16:40:09.206Z,18.48
2022-10-28T16:45:21.421Z,17.60
2022-10-28T16:50:23.326Z,20.75
2022-10-28T16:55:24.800Z,20.02
2022-10-28T17:00:26.255Z,19.13
2022-10-28T17:05:27.714Z,19.60
2022-10-28T17:10:29.165Z,21.20
2022-10-28T17:15:30.678Z,19.33
2022-10-28T17:20:32.171Z,23.52
2022-10-28T17:25:33.725Z,18.88
2022-10-28T17:30:35.541Z,18.35
2022-10-28T17:35:37.041Z,17.73
2022-10-28T17:40:38.488Z,21.60
2022-10-28T17:45:39.988Z,23.15
2022-10-28T17:50:41.448Z,21.00
2022-10-28T17:55:43.015Z,26.20
2022-10-28T18:00:45.499Z,21.98
2022-10-28T18:05:46.964Z,23.73
2022-10-28T18:10:55.207Z,27.25
2022-10-28T18:16:06.356Z,21.80
2022-10-28T18:21:10.907Z,29.67
2022-10-28T18:26:12.837Z,30.08
2022-10-28T18:31:18.281Z,34.35
2022-10-28T18:36:23.486Z,26.08
2022-10-28T18:41:26.640Z,24.45
2022-10-28T18:46:28.707Z,28.58
2022-10-28T18:51:30.279Z,32.22
2022-10-28T18:56:34.032Z,29.70
2022-10-28T19:01:36.125Z,24.52
2022-10-28T19:06:39.051Z,27.20
2022-10-28T19:11:40.532Z,24.30
2022-10-28T19:16:42.019Z,28.58
2022-10-28T19:21:43.500Z,26.60
2022-10-28T19:26:44.992Z,32.85
2022-10-28T19:31:46.793Z,34.40
2022-10-28T19:36:48.243Z,26.83
2022-10-28T19:41:49.765Z,32.42
2022-10-28T19:46:51.272Z,33.97
2022-10-28T19:51:52.733Z,28.48
2022-10-28T19:56:54.191Z,23.95
2022-10-28T20:01:55.692Z,28.08
2022-10-28T20:06:58.758Z,32.05
2022-10-28T20:12:01.791Z,28.45
2022-10-28T20:17:06.558Z,31.02
2022-10-28T20:22:08.368Z,22.35
2022-10-28T20:27:09.891Z,23.83
2022-10-28T20:32:11.356Z,24.17
2022-10-28T20:37:12.823Z,23.42
2022-10-28T20:42:14.296Z,28.73
2022-10-28T20:47:17.634Z,22.45
2022-10-28T20:52:19.148Z,13.70
2022-10-28T20:57:20.618Z,16.02
2022-10-28T21:02:22.174Z,21.92
2022-10-28T21:07:23.823Z,17.77
2022-10-28T21:12:25.899Z,18.42
2022-10-28T21:17:27.350Z,15.38
2022-10-28T21:22:28.824Z,16.23
2022-10-28T21:27:30.393Z,23.98
2022-10-28T21:32:32.204Z,15.02
2022-10-28T21:37:34.010Z,19.40
2022-10-28T21:42:35.473Z,17.63
2022-10-28T21:47:36.941Z,16.08
2022-10-28T21:52:38.396Z,17.95
2022-10-28T21:57:39.846Z,18.55
2022-10-28T22:02:41.418Z,19.20
2022-10-28T22:07:43.014Z,20.90
2022-10-28T22:12:44.453Z,20.08
2022-10-28T22:17:45.938Z,19.48
2022-10-28T22:22:47.400Z,15.52
2022-10-28T22:27:48.851Z,15.98
2022-10-28T22:32:50.307Z,15.43
2022-10-28T22:37:51.901Z,21.50
2022-10-28T22:42:53.631Z,18.48
2022-10-28T22:47:55.367Z,17.08
2022-10-28T22:52:57.205Z,15.48
2022-10-28T22:57:58.912Z,21.05
2022-10-28T23:03:00.901Z,12.32
2022-10-28T23:08:02.502Z,16.10
2022-10-28T23:13:03.969Z,13.32
2022-10-28T23:18:05.441Z,18.70
2022-10-28T23:23:06.906Z,19.58
2022-10-28T23:28:08.363Z,13.55
2022-10-28T23:33:09.821Z,17.65
2022-10-28T23:38:16.300Z,21.60
2022-10-28T23:43:17.765Z,10.52
2022-10-28T23:48:19.347Z,9.15
2022-10-28T23:53:21.036Z,10.50
2022-10-28T23:58:22.710Z,12.88
